sensor_id;sensor_type;location;lat;lon;timestamp;pressure;altitude;pressure_sealevel;temperature;humidity
40788;BME280;26497;52.494;7.546;2023-02-22T00:00:21;100956.97;;;14.30;72.65
40788;BME280;26497;52.494;7.546;2023-02-22T00:02:55;100956.91;;;14.35;72.39
40788;BME280;26497;52.494;7.546;2023-02-22T00:05:26;100952.53;;;14.33;72.15
40788;BME280;26497;52.494;7.546;2023-02-22T00:07:56;100947.22;;;14.33;72.06
40788;BME280;26497;52.494;7.546;2023-02-22T00:10:26;100949.00;;;14.30;72.16
40788;BME280;26497;52.494;7.546;2023-02-22T00:12:54;100951.63;;;14.32;72.08
40788;BME280;26497;52.494;7.546;2023-02-22T00:15:23;100939.22;;;14.36;71.74
40788;BME280;26497;52.494;7.546;2023-02-22T00:17:54;100934.88;;;14.28;71.96
40788;BME280;26497;52.494;7.546;2023-02-22T00:20:22;100934.88;;;14.28;72.01
40788;BME280;26497;52.494;7.546;2023-02-22T00:22:50;100934.91;;;14.25;72.08
40788;BME280;26497;52.494;7.546;2023-02-22T00:25:20;100931.34;;;14.29;71.87
40788;BME280;26497;52.494;7.546;2023-02-22T00:27:48;100936.72;;;14.22;71.98
40788;BME280;26497;52.494;7.546;2023-02-22T00:30:19;100934.88;;;14.27;72.06
40788;BME280;26497;52.494;7.546;2023-02-22T00:32:47;100936.72;;;14.23;72.00
40788;BME280;26497;52.494;7.546;2023-02-22T00:35:20;100921.69;;;14.22;72.12
40788;BME280;26497;52.494;7.546;2023-02-22T00:37:48;100921.63;;;14.27;71.65
40788;BME280;26497;52.494;7.546;2023-02-22T00:40:19;100926.06;;;14.26;71.71
40788;BME280;26497;52.494;7.546;2023-02-22T00:42:47;100920.75;;;14.26;71.67
40788;BME280;26497;52.494;7.546;2023-02-22T00:45:17;100920.84;;;14.15;72.20
40788;BME280;26497;52.494;7.546;2023-02-22T00:47:45;100912.91;;;14.15;71.78
40788;BME280;26497;52.494;7.546;2023-02-22T00:50:13;100914.03;;;13.93;72.34
40788;BME280;26497;52.494;7.546;2023-02-22T00:52:42;100909.59;;;13.95;72.70
40788;BME280;26497;52.494;7.546;2023-02-22T00:55:15;100915.69;;;14.05;72.57
40788;BME280;26497;52.494;7.546;2023-02-22T00:57:42;100907.66;;;14.09;72.45
40788;BME280;26497;52.494;7.546;2023-02-22T01:00:17;100908.53;;;14.13;72.27
40788;BME280;26497;52.494;7.546;2023-02-22T01:02:45;100908.56;;;14.08;72.41
40788;BME280;26497;52.494;7.546;2023-02-22T01:05:18;100903.19;;;14.16;72.02
40788;BME280;26497;52.494;7.546;2023-02-22T01:07:47;100909.31;;;14.21;71.96
40788;BME280;26497;52.494;7.546;2023-02-22T01:10:16;100895.13;;;14.24;71.65
40788;BME280;26497;52.494;7.546;2023-02-22T01:12:44;100902.22;;;14.23;71.60
40788;BME280;26497;52.494;7.546;2023-02-22T01:15:13;100904.88;;;14.23;71.44
40788;BME280;26497;52.494;7.546;2023-02-22T01:17:40;100898.06;;;13.99;72.06
40788;BME280;26497;52.494;7.546;2023-02-22T01:20:10;100897.31;;;13.86;72.76
40788;BME280;26497;52.494;7.546;2023-02-22T01:22:38;100897.16;;;14.00;72.45
40788;BME280;26497;52.494;7.546;2023-02-22T01:25:08;100899.78;;;14.03;72.34
40788;BME280;26497;52.494;7.546;2023-02-22T01:27:44;100890.91;;;14.09;72.13
40788;BME280;26497;52.494;7.546;2023-02-22T01:30:14;100891.78;;;14.06;72.10
40788;BME280;26497;52.494;7.546;2023-02-22T01:32:41;100877.66;;;14.04;72.14
40788;BME280;26497;52.494;7.546;2023-02-22T01:35:13;100875.84;;;14.11;71.98
40788;BME280;26497;52.494;7.546;2023-02-22T01:37:40;100872.25;;;14.13;71.82
40788;BME280;26497;52.494;7.546;2023-02-22T01:40:17;100867.81;;;14.15;71.66
40788;BME280;26497;52.494;7.546;2023-02-22T01:42:49;100866.91;;;14.16;71.42
40788;BME280;26497;52.494;7.546;2023-02-22T01:45:48;100856.34;;;14.13;71.49
40788;BME280;26497;52.494;7.546;2023-02-22T01:48:23;100854.66;;;14.08;71.69
40788;BME280;26497;52.494;7.546;2023-02-22T01:50:55;100847.59;;;14.05;71.72
40788;BME280;26497;52.494;7.546;2023-02-22T01:53:27;100848.53;;;14.03;71.95
40788;BME280;26497;52.494;7.546;2023-02-22T01:55:57;100840.50;;;14.09;71.72
40788;BME280;26497;52.494;7.546;2023-02-22T01:58:26;100841.38;;;14.09;71.67
40788;BME280;26497;52.494;7.546;2023-02-22T02:00:54;100839.63;;;14.08;71.49
40788;BME280;26497;52.494;7.546;2023-02-22T02:03:26;100844.06;;;14.06;71.72
40788;BME280;26497;52.494;7.546;2023-02-22T02:05:58;100839.63;;;14.08;71.69
40788;BME280;26497;52.494;7.546;2023-02-22T02:08:34;100831.75;;;13.99;71.92
40788;BME280;26497;52.494;7.546;2023-02-22T02:11:06;100838.13;;;13.85;72.26
40788;BME280;26497;52.494;7.546;2023-02-22T02:13:34;100839.84;;;13.88;72.38
40788;BME280;26497;52.494;7.546;2023-02-22T02:16:01;100830.97;;;13.92;72.25
40788;BME280;26497;52.494;7.546;2023-02-22T02:18:29;100831.72;;;14.02;71.98
40788;BME280;26497;52.494;7.546;2023-02-22T02:25:03;100839.97;;;13.80;72.57
40788;BME280;26497;52.494;7.546;2023-02-22T02:27:54;100828.34;;;13.91;72.36
40788;BME280;26497;52.494;7.546;2023-02-22T02:30:48;100824.03;;;13.82;72.46
40788;BME280;26497;52.494;7.546;2023-02-22T02:33:28;100830.28;;;13.76;72.73
40788;BME280;26497;52.494;7.546;2023-02-22T02:36:05;100830.34;;;13.68;73.20
40788;BME280;26497;52.494;7.546;2023-02-22T02:38:40;100823.25;;;13.72;73.07
40788;BME280;26497;52.494;7.546;2023-02-22T02:41:16;100833.78;;;13.77;72.83
40788;BME280;26497;52.494;7.546;2023-02-22T02:43:54;100823.31;;;13.66;73.29
40788;BME280;26497;52.494;7.546;2023-02-22T02:46:28;100829.59;;;13.57;73.84
40788;BME280;26497;52.494;7.546;2023-02-22T02:49:02;100820.03;;;13.37;74.70
40788;BME280;26497;52.494;7.546;2023-02-22T02:51:36;100819.13;;;13.38;75.00
40788;BME280;26497;52.494;7.546;2023-02-22T02:54:06;100818.25;;;13.44;74.80
40788;BME280;26497;52.494;7.546;2023-02-22T02:56:34;100813.81;;;13.46;75.00
40788;BME280;26497;52.494;7.546;2023-02-22T02:59:01;100807.53;;;13.55;74.95
40788;BME280;26497;52.494;7.546;2023-02-22T03:01:44;100813.81;;;13.46;74.90
40788;BME280;26497;52.494;7.546;2023-02-22T03:04:29;100805.72;;;13.59;74.26
40788;BME280;26497;52.494;7.546;2023-02-22T03:07:27;100801.19;;;13.70;73.83
40788;BME280;26497;52.494;7.546;2023-02-22T03:10:19;100791.53;;;13.66;74.04
40788;BME280;26497;52.494;7.546;2023-02-22T03:12:59;100791.34;;;13.81;73.44
40788;BME280;26497;52.494;7.546;2023-02-22T03:15:34;100796.84;;;13.61;73.84
40788;BME280;26497;52.494;7.546;2023-02-22T03:18:11;100790.59;;;13.70;73.51
40788;BME280;26497;52.494;7.546;2023-02-22T03:20:47;100786.06;;;13.81;73.28
40788;BME280;26497;52.494;7.546;2023-02-22T03:23:22;100783.41;;;13.81;73.21
40788;BME280;26497;52.494;7.546;2023-02-22T03:25:54;100781.66;;;13.80;73.06
40788;BME280;26497;52.494;7.546;2023-02-22T03:28:25;100778.06;;;13.83;72.95
40788;BME280;26497;52.494;7.546;2023-02-22T03:30:58;100777.13;;;13.87;72.82
40788;BME280;26497;52.494;7.546;2023-02-22T03:33:34;100770.94;;;13.88;72.58
40788;BME280;26497;52.494;7.546;2023-02-22T03:36:13;100777.16;;;13.85;72.11
40788;BME280;26497;52.494;7.546;2023-02-22T03:38:44;100773.72;;;13.77;72.01
40788;BME280;26497;52.494;7.546;2023-02-22T03:41:12;100769.50;;;13.61;72.47
40788;BME280;26497;52.494;7.546;2023-02-22T03:43:45;100769.47;;;13.64;72.26
40788;BME280;26497;52.494;7.546;2023-02-22T03:46:14;100774.75;;;13.64;71.80
40788;BME280;26497;52.494;7.546;2023-02-22T03:48:49;100765.94;;;13.62;71.92
40788;BME280;26497;52.494;7.546;2023-02-22T03:51:20;100764.19;;;13.61;71.47
40788;BME280;26497;52.494;7.546;2023-02-22T03:53:48;100760.78;;;13.49;71.20
40788;BME280;26497;52.494;7.546;2023-02-22T03:56:22;100757.38;;;13.35;71.05
40788;BME280;26497;52.494;7.546;2023-02-22T03:58:51;100754.88;;;13.21;71.09
40788;BME280;26497;52.494;7.546;2023-02-22T04:01:18;100759.47;;;12.98;70.46
40788;BME280;26497;52.494;7.546;2023-02-22T04:03:48;100753.50;;;12.75;69.97
40788;BME280;26497;52.494;7.546;2023-02-22T04:06:15;100758.09;;;12.49;69.88
40788;BME280;26497;52.494;7.546;2023-02-22T04:08:43;100756.41;;;12.39;70.43
40788;BME280;26497;52.494;7.546;2023-02-22T04:11:10;100746.72;;;12.35;70.36
40788;BME280;26497;52.494;7.546;2023-02-22T04:13:37;100741.47;;;12.30;70.16
40788;BME280;26497;52.494;7.546;2023-02-22T04:16:05;100744.97;;;12.38;69.33
40788;BME280;26497;52.494;7.546;2023-02-22T04:18:32;100739.69;;;12.35;69.50
40788;BME280;26497;52.494;7.546;2023-02-22T04:20:59;100736.16;;;12.35;69.66
40788;BME280;26497;52.494;7.546;2023-02-22T04:23:26;100744.09;;;12.35;68.58
40788;BME280;26497;52.494;7.546;2023-02-22T04:25:54;100739.81;;;12.12;68.83
40788;BME280;26497;52.494;7.546;2023-02-22T04:28:21;100745.22;;;11.84;69.52
40788;BME280;26497;52.494;7.546;2023-02-22T04:30:48;100736.47;;;11.65;70.00
40788;BME280;26497;52.494;7.546;2023-02-22T04:33:15;100738.25;;;11.57;70.56
40788;BME280;26497;52.494;7.546;2023-02-22T04:35:42;100733.84;;;11.59;71.42
40788;BME280;26497;52.494;7.546;2023-02-22T04:38:10;100732.03;;;11.73;71.94
40788;BME280;26497;52.494;7.546;2023-02-22T04:40:37;100731.94;;;11.93;72.05
40788;BME280;26497;52.494;7.546;2023-02-22T04:43:06;100739.81;;;12.14;71.95
40788;BME280;26497;52.494;7.546;2023-02-22T04:45:33;100733.56;;;12.30;71.78
40788;BME280;26497;52.494;7.546;2023-02-22T04:48:00;100728.19;;;12.38;72.08
40788;BME280;26497;52.494;7.546;2023-02-22T04:50:27;100739.53;;;12.56;71.72
40788;BME280;26497;52.494;7.546;2023-02-22T04:52:54;100734.19;;;12.60;71.78
40788;BME280;26497;52.494;7.546;2023-02-22T04:55:22;100736.81;;;12.68;71.77
40788;BME280;26497;52.494;7.546;2023-02-22T04:57:49;100727.03;;;12.75;71.83
40788;BME280;26497;52.494;7.546;2023-02-22T05:00:19;100726.97;;;12.82;71.84
40788;BME280;26497;52.494;7.546;2023-02-22T05:02:46;100725.97;;;12.97;71.76
40788;BME280;26497;52.494;7.546;2023-02-22T05:05:14;100726.88;;;12.93;72.14
40788;BME280;26497;52.494;7.546;2023-02-22T05:07:41;100721.59;;;12.93;72.46
40788;BME280;26497;52.494;7.546;2023-02-22T05:10:11;100722.31;;;13.08;72.26
40788;BME280;26497;52.494;7.546;2023-02-22T05:12:38;100724.09;;;13.09;72.34
40788;BME280;26497;52.494;7.546;2023-02-22T05:15:07;100712.53;;;13.18;72.21
40788;BME280;26497;52.494;7.546;2023-02-22T05:17:36;100711.63;;;13.22;72.23
40788;BME280;26497;52.494;7.546;2023-02-22T05:20:04;100708.06;;;13.21;72.34
40788;BME280;26497;52.494;7.546;2023-02-22T05:22:33;100708.84;;;13.31;72.34
40788;BME280;26497;52.494;7.546;2023-02-22T05:25:01;100715.06;;;13.28;72.48
40788;BME280;26497;52.494;7.546;2023-02-22T05:27:28;100707.91;;;13.35;72.44
40788;BME280;26497;52.494;7.546;2023-02-22T05:29:55;100711.47;;;13.33;72.53
40788;BME280;26497;52.494;7.546;2023-02-22T05:32:22;100709.78;;;13.25;72.70
40788;BME280;26497;52.494;7.546;2023-02-22T05:34:50;100708.88;;;13.28;72.89
40788;BME280;26497;52.494;7.546;2023-02-22T05:37:18;100710.63;;;13.31;72.78
40788;BME280;26497;52.494;7.546;2023-02-22T05:39:45;100708.84;;;13.31;72.73
40788;BME280;26497;52.494;7.546;2023-02-22T05:42:12;100715.41;;;12.96;74.08
40788;BME280;26497;52.494;7.546;2023-02-22T05:44:39;100705.56;;;13.10;73.97
40788;BME280;26497;52.494;7.546;2023-02-22T05:47:06;100702.94;;;13.07;74.10
40788;BME280;26497;52.494;7.546;2023-02-22T05:49:33;100703.88;;;13.00;74.31
40788;BME280;26497;52.494;7.546;2023-02-22T05:52:01;100702.38;;;12.69;75.61
40788;BME280;26497;52.494;7.546;2023-02-22T05:54:28;100700.56;;;12.76;76.18
40788;BME280;26497;52.494;7.546;2023-02-22T05:56:55;100703.09;;;12.89;75.49
40788;BME280;26497;52.494;7.546;2023-02-22T05:59:22;100696.88;;;12.96;75.02
40788;BME280;26497;52.494;7.546;2023-02-22T06:01:49;100698.63;;;12.95;74.83
40788;BME280;26497;52.494;7.546;2023-02-22T06:04:16;100695.09;;;12.95;75.02
40788;BME280;26497;52.494;7.546;2023-02-22T06:06:43;100692.41;;;13.00;74.74
40788;BME280;26497;52.494;7.546;2023-02-22T06:09:11;100696.94;;;12.87;74.96
40788;BME280;26497;52.494;7.546;2023-02-22T06:11:38;100694.28;;;12.88;75.23
40788;BME280;26497;52.494;7.546;2023-02-22T06:14:05;100695.22;;;12.81;75.76
40788;BME280;26497;52.494;7.546;2023-02-22T06:16:33;100696.84;;;12.97;75.05
40788;BME280;26497;52.494;7.546;2023-02-22T06:18:59;100690.66;;;12.98;75.20
40788;BME280;26497;52.494;7.546;2023-02-22T06:21:26;100688.72;;;13.18;74.60
40788;BME280;26497;52.494;7.546;2023-02-22T06:23:54;100684.38;;;13.10;74.72
40788;BME280;26497;52.494;7.546;2023-02-22T06:26:22;100682.34;;;13.31;73.96
40788;BME280;26497;52.494;7.546;2023-02-22T06:28:50;100679.81;;;13.25;73.78
40788;BME280;26497;52.494;7.546;2023-02-22T06:31:17;100684.09;;;13.34;73.65
40788;BME280;26497;52.494;7.546;2023-02-22T06:33:44;100686.00;;;13.22;73.48
40788;BME280;26497;52.494;7.546;2023-02-22T06:36:11;100688.69;;;13.19;73.55
40788;BME280;26497;52.494;7.546;2023-02-22T06:38:38;100679.91;;;13.14;73.80
40788;BME280;26497;52.494;7.546;2023-02-22T06:41:05;100679.81;;;13.23;73.65
40788;BME280;26497;52.494;7.546;2023-02-22T06:43:35;100679.81;;;13.23;73.43
40788;BME280;26497;52.494;7.546;2023-02-22T06:46:02;100681.56;;;13.24;73.28
40788;BME280;26497;52.494;7.546;2023-02-22T06:48:30;100682.66;;;13.05;73.90
40788;BME280;26497;52.494;7.546;2023-02-22T06:50:57;100686.34;;;12.88;74.64
40788;BME280;26497;52.494;7.546;2023-02-22T06:53:24;100689.00;;;12.87;75.37
40788;BME280;26497;52.494;7.546;2023-02-22T06:55:52;100680.22;;;12.83;75.56
40788;BME280;26497;52.494;7.546;2023-02-22T06:58:20;100681.78;;;13.04;74.63
40788;BME280;26497;52.494;7.546;2023-02-22T07:00:48;100678.47;;;12.79;74.96
40788;BME280;26497;52.494;7.546;2023-02-22T07:03:15;100679.56;;;12.58;75.78
40788;BME280;26497;52.494;7.546;2023-02-22T07:05:42;100676.97;;;12.51;75.99
40788;BME280;26497;52.494;7.546;2023-02-22T07:08:10;100685.09;;;12.25;77.31
40788;BME280;26497;52.494;7.546;2023-02-22T07:10:38;100689.47;;;12.29;77.34
40788;BME280;26497;52.494;7.546;2023-02-22T07:13:07;100691.38;;;12.12;78.12
40788;BME280;26497;52.494;7.546;2023-02-22T07:15:34;100684.09;;;12.40;77.51
40788;BME280;26497;52.494;7.546;2023-02-22T07:18:03;100692.97;;;12.33;77.52
40788;BME280;26497;52.494;7.546;2023-02-22T07:20:31;100686.56;;;12.60;76.91
40788;BME280;26497;52.494;7.546;2023-02-22T07:22:58;100691.03;;;12.58;76.19
40788;BME280;26497;52.494;7.546;2023-02-22T07:25:26;100689.34;;;12.48;76.79
40788;BME280;26497;52.494;7.546;2023-02-22T07:27:53;100680.22;;;12.85;75.64
40788;BME280;26497;52.494;7.546;2023-02-22T07:30:22;100683.63;;;12.94;74.84
40788;BME280;26497;52.494;7.546;2023-02-22T07:32:51;100687.41;;;12.70;74.73
40788;BME280;26497;52.494;7.546;2023-02-22T07:35:23;100687.56;;;12.53;75.10
40788;BME280;26497;52.494;7.546;2023-02-22T07:37:51;100689.41;;;12.40;75.67
40788;BME280;26497;52.494;7.546;2023-02-22T07:40:18;100689.31;;;12.51;75.31
40788;BME280;26497;52.494;7.546;2023-02-22T07:42:57;100686.00;;;12.22;75.77
40788;BME280;26497;52.494;7.546;2023-02-22T07:45:27;100693.94;;;12.24;76.26
40788;BME280;26497;52.494;7.546;2023-02-22T07:47:55;100686.72;;;12.45;75.98
40788;BME280;26497;52.494;7.546;2023-02-22T07:50:26;100691.88;;;12.62;75.25
40788;BME280;26497;52.494;7.546;2023-02-22T07:52:56;100684.78;;;12.67;75.18
40788;BME280;26497;52.494;7.546;2023-02-22T07:55:26;100681.28;;;12.60;75.28
40788;BME280;26497;52.494;7.546;2023-02-22T07:57:57;100677.41;;;12.98;74.60
40788;BME280;26497;52.494;7.546;2023-02-22T08:00:28;100679.97;;;13.09;73.81
40788;BME280;26497;52.494;7.546;2023-02-22T08:02:56;100674.78;;;12.95;73.78
40788;BME280;26497;52.494;7.546;2023-02-22T08:05:27;100683.91;;;12.65;74.28
40788;BME280;26497;52.494;7.546;2023-02-22T08:07:54;100680.31;;;12.72;74.57
40788;BME280;26497;52.494;7.546;2023-02-22T08:10:23;100674.38;;;12.47;75.50
40788;BME280;26497;52.494;7.546;2023-02-22T08:12:51;100677.91;;;12.44;75.30
40788;BME280;26497;52.494;7.546;2023-02-22T08:15:21;100672.50;;;12.58;75.12
40788;BME280;26497;52.494;7.546;2023-02-22T08:17:49;100667.19;;;12.60;75.06
40788;BME280;26497;52.494;7.546;2023-02-22T08:20:18;100665.28;;;12.76;74.93
40788;BME280;26497;52.494;7.546;2023-02-22T08:22:48;100663.19;;;13.09;73.78
40788;BME280;26497;52.494;7.546;2023-02-22T08:25:17;100662.94;;;13.31;72.84
40788;BME280;26497;52.494;7.546;2023-02-22T08:27:50;100663.69;;;13.44;72.32
40788;BME280;26497;52.494;7.546;2023-02-22T08:30:21;100653.97;;;13.47;72.15
40788;BME280;26497;52.494;7.546;2023-02-22T08:32:49;100661.81;;;13.53;71.76
40788;BME280;26497;52.494;7.546;2023-02-22T08:35:18;100659.25;;;13.47;70.97
40788;BME280;26497;52.494;7.546;2023-02-22T08:37:50;100653.22;;;13.31;71.09
40788;BME280;26497;52.494;7.546;2023-02-22T08:40:20;100648.75;;;13.38;70.77
40788;BME280;26497;52.494;7.546;2023-02-22T08:42:48;100650.25;;;13.59;70.44
40788;BME280;26497;52.494;7.546;2023-02-22T08:45:16;100649.41;;;13.59;69.86
40788;BME280;26497;52.494;7.546;2023-02-22T08:47:43;100644.28;;;13.41;70.28
40788;BME280;26497;52.494;7.546;2023-02-22T08:50:16;100642.19;;;13.68;69.93
40788;BME280;26497;52.494;7.546;2023-02-22T08:52:43;100645.53;;;13.83;69.95
40788;BME280;26497;52.494;7.546;2023-02-22T08:55:12;100647.06;;;13.98;69.47
40788;BME280;26497;52.494;7.546;2023-02-22T08:57:39;100648.44;;;13.66;69.69
40788;BME280;26497;52.494;7.546;2023-02-22T09:00:08;100646.47;;;13.80;69.38
40788;BME280;26497;52.494;7.546;2023-02-22T09:02:35;100651.97;;;13.65;69.68
40788;BME280;26497;52.494;7.546;2023-02-22T09:05:02;100649.38;;;13.60;69.64
40788;BME280;26497;52.494;7.546;2023-02-22T09:07:34;100649.94;;;13.85;69.39
40788;BME280;26497;52.494;7.546;2023-02-22T09:10:01;100634.97;;;13.81;68.50
40788;BME280;26497;52.494;7.546;2023-02-22T09:12:29;100641.59;;;13.46;69.41
40788;BME280;26497;52.494;7.546;2023-02-22T09:14:56;100637.03;;;13.57;70.09
40788;BME280;26497;52.494;7.546;2023-02-22T09:17:23;100637.88;;;14.22;69.29
40788;BME280;26497;52.494;7.546;2023-02-22T09:19:50;100636.38;;;14.59;67.78
40788;BME280;26497;52.494;7.546;2023-02-22T09:22:18;100640.03;;;14.52;66.69
40788;BME280;26497;52.494;7.546;2023-02-22T09:24:45;100633.38;;;14.27;66.30
40788;BME280;26497;52.494;7.546;2023-02-22T09:27:12;100628.94;;;14.28;66.54
40788;BME280;26497;52.494;7.546;2023-02-22T09:29:40;100621.13;;;14.73;66.19
40788;BME280;26497;52.494;7.546;2023-02-22T09:32:07;100629.38;;;14.55;65.36
40788;BME280;26497;52.494;7.546;2023-02-22T09:34:34;100627.66;;;15.02;65.50
40788;BME280;26497;52.494;7.546;2023-02-22T09:37:01;100625.06;;;14.99;63.28
40788;BME280;26497;52.494;7.546;2023-02-22T09:39:29;100624.66;;;15.19;63.48
40788;BME280;26497;52.494;7.546;2023-02-22T09:42:10;100619.16;;;15.27;62.44
40788;BME280;26497;52.494;7.546;2023-02-22T09:44:46;100617.75;;;15.53;63.02
40788;BME280;26497;52.494;7.546;2023-02-22T09:47:17;100618.72;;;15.91;61.60
40788;BME280;26497;52.494;7.546;2023-02-22T09:49:56;100619.56;;;15.94;60.79
40788;BME280;26497;52.494;7.546;2023-02-22T09:52:29;100615.22;;;15.48;60.93
40788;BME280;26497;52.494;7.546;2023-02-22T09:55:07;100615.75;;;16.04;60.71
40788;BME280;26497;52.494;7.546;2023-02-22T09:57:39;100620.50;;;16.62;60.15
40788;BME280;26497;52.494;7.546;2023-02-22T10:00:16;100617.28;;;16.50;58.51
40788;BME280;26497;52.494;7.546;2023-02-22T10:02:51;100617.13;;;16.90;58.35
40788;BME280;26497;52.494;7.546;2023-02-22T10:05:24;100607.22;;;16.95;56.73
40788;BME280;26497;52.494;7.546;2023-02-22T10:07:58;100620.50;;;16.63;57.65
40788;BME280;26497;52.494;7.546;2023-02-22T10:10:33;100611.22;;;16.45;57.62
40788;BME280;26497;52.494;7.546;2023-02-22T10:13:09;100611.44;;;16.36;57.75
40788;BME280;26497;52.494;7.546;2023-02-22T10:15:52;100608.81;;;16.34;58.56
40788;BME280;26497;52.494;7.546;2023-02-22T10:18:44;100600.69;;;16.74;57.61
40788;BME280;26497;52.494;7.546;2023-02-22T10:21:40;100602.66;;;17.00;56.97
40788;BME280;26497;52.494;7.546;2023-02-22T10:24:25;100592.47;;;16.81;57.22
40788;BME280;26497;52.494;7.546;2023-02-22T10:26:55;100600.03;;;16.65;57.04
40788;BME280;26497;52.494;7.546;2023-02-22T10:29:31;100603.78;;;16.57;58.07
40788;BME280;26497;52.494;7.546;2023-02-22T10:32:04;100594.09;;;16.56;57.89
40788;BME280;26497;52.494;7.546;2023-02-22T10:34:38;100594.44;;;16.75;57.66
40788;BME280;26497;52.494;7.546;2023-02-22T10:37:23;100596.38;;;16.70;58.17
40788;BME280;26497;52.494;7.546;2023-02-22T10:39:56;100592.22;;;16.91;57.09
40788;BME280;26497;52.494;7.546;2023-02-22T10:42:26;100593.22;;;17.20;56.93
40788;BME280;26497;52.494;7.546;2023-02-22T10:44:53;100597.00;;;17.43;54.78
40788;BME280;26497;52.494;7.546;2023-02-22T10:47:23;100588.53;;;17.28;55.00
40788;BME280;26497;52.494;7.546;2023-02-22T10:49:53;100581.34;;;17.00;55.05
40788;BME280;26497;52.494;7.546;2023-02-22T10:52:25;100587.72;;;16.93;56.20
40788;BME280;26497;52.494;7.546;2023-02-22T10:54:55;100585.06;;;16.93;56.47
40788;BME280;26497;52.494;7.546;2023-02-22T10:57:26;100583.69;;;17.43;55.49
40788;BME280;26497;52.494;7.546;2023-02-22T10:59:54;100578.34;;;17.71;54.68
40788;BME280;26497;52.494;7.546;2023-02-22T11:02:29;100580.53;;;18.42;53.27
40788;BME280;26497;52.494;7.546;2023-02-22T11:04:59;100574.53;;;18.61;51.46
40788;BME280;26497;52.494;7.546;2023-02-22T11:07:30;100578.13;;;18.85;51.35
40788;BME280;26497;52.494;7.546;2023-02-22T11:09:59;100575.75;;;18.77;51.31
40788;BME280;26497;52.494;7.546;2023-02-22T11:12:30;100569.94;;;18.90;50.65
40788;BME280;26497;52.494;7.546;2023-02-22T11:15:25;100559.69;;;19.50;49.65
40788;BME280;26497;52.494;7.546;2023-02-22T11:17:56;100549.72;;;19.54;47.13
40788;BME280;26497;52.494;7.546;2023-02-22T11:20:28;100545.00;;;19.83;48.25
40788;BME280;26497;52.494;7.546;2023-02-22T11:23:01;100543.13;;;20.07;47.82
40788;BME280;26497;52.494;7.546;2023-02-22T11:25:32;100528.31;;;20.21;46.77
40788;BME280;26497;52.494;7.546;2023-02-22T11:28:08;100534.81;;;20.15;45.98
40788;BME280;26497;52.494;7.546;2023-02-22T11:30:37;100536.16;;;20.25;45.80
40788;BME280;26497;52.494;7.546;2023-02-22T11:33:21;100540.81;;;19.99;45.43
40788;BME280;26497;52.494;7.546;2023-02-22T11:35:51;100528.59;;;19.92;46.28
40788;BME280;26497;52.494;7.546;2023-02-22T11:38:22;100529.47;;;19.93;47.02
40788;BME280;26497;52.494;7.546;2023-02-22T11:41:14;100529.09;;;19.57;46.63
40788;BME280;26497;52.494;7.546;2023-02-22T11:43:42;100535.53;;;19.52;47.65
40788;BME280;26497;52.494;7.546;2023-02-22T11:46:12;100530.94;;;19.78;48.17
40788;BME280;26497;52.494;7.546;2023-02-22T11:48:46;100534.81;;;19.48;47.71
40788;BME280;26497;52.494;7.546;2023-02-22T11:51:33;100535.66;;;19.26;47.44
40788;BME280;26497;52.494;7.546;2023-02-22T11:54:32;100530.53;;;19.20;46.53
40788;BME280;26497;52.494;7.546;2023-02-22T11:57:18;100523.69;;;19.13;47.57
40788;BME280;26497;52.494;7.546;2023-02-22T12:00:17;100521.66;;;19.20;47.10
40788;BME280;26497;52.494;7.546;2023-02-22T12:03:27;100524.13;;;18.51;47.68
40788;BME280;26497;52.494;7.546;2023-02-22T12:06:14;100513.28;;;18.31;48.80
40788;BME280;26497;52.494;7.546;2023-02-22T12:08:57;100511.81;;;18.47;48.01
40788;BME280;26497;52.494;7.546;2023-02-22T12:11:34;100497.94;;;18.61;47.94
40788;BME280;26497;52.494;7.546;2023-02-22T12:14:17;100499.44;;;18.19;47.88
40788;BME280;26497;52.494;7.546;2023-02-22T12:17:08;100498.31;;;18.00;49.56
40788;BME280;26497;52.494;7.546;2023-02-22T12:19:41;100495.31;;;18.10;49.80
40788;BME280;26497;52.494;7.546;2023-02-22T12:22:15;100493.53;;;18.36;47.90
40788;BME280;26497;52.494;7.546;2023-02-22T12:24:48;100482.56;;;18.19;48.35
40788;BME280;26497;52.494;7.546;2023-02-22T12:27:23;100490.31;;;18.52;48.35
40788;BME280;26497;52.494;7.546;2023-02-22T12:29:54;100494.88;;;18.23;48.36
40788;BME280;26497;52.494;7.546;2023-02-22T12:32:31;100493.75;;;18.30;48.30
40788;BME280;26497;52.494;7.546;2023-02-22T12:35:07;100495.75;;;18.49;47.62
40788;BME280;26497;52.494;7.546;2023-02-22T12:37:51;100497.44;;;18.51;47.38
40788;BME280;26497;52.494;7.546;2023-02-22T12:40:23;100493.78;;;18.28;47.73
40788;BME280;26497;52.494;7.546;2023-02-22T12:42:58;100485.97;;;18.22;47.23
40788;BME280;26497;52.494;7.546;2023-02-22T12:45:31;100483.25;;;18.49;47.38
40788;BME280;26497;52.494;7.546;2023-02-22T12:48:21;100483.75;;;18.84;47.00
40788;BME280;26497;52.494;7.546;2023-02-22T12:50:54;100485.16;;;18.95;46.33
40788;BME280;26497;52.494;7.546;2023-02-22T12:53:30;100484.34;;;18.93;46.04
40788;BME280;26497;52.494;7.546;2023-02-22T12:56:04;100483.00;;;18.81;46.18
40788;BME280;26497;52.494;7.546;2023-02-22T12:58:48;100489.84;;;18.88;46.31
40788;BME280;26497;52.494;7.546;2023-02-22T13:01:21;100482.63;;;18.66;46.77
40788;BME280;26497;52.494;7.546;2023-02-22T13:03:53;100474.72;;;18.39;47.53
40788;BME280;26497;52.494;7.546;2023-02-22T13:06:39;100476.84;;;18.55;46.54
40788;BME280;26497;52.494;7.546;2023-02-22T13:09:44;100471.16;;;18.39;48.19
40788;BME280;26497;52.494;7.546;2023-02-22T13:12:18;100483.44;;;18.19;47.77
40788;BME280;26497;52.494;7.546;2023-02-22T13:15:00;100477.47;;;18.11;47.60
40788;BME280;26497;52.494;7.546;2023-02-22T13:17:39;100471.56;;;18.28;47.89